createdAt,value
2019-05-22T00:00:55.094Z,0.00
2019-05-22T00:01:55.074Z,0.00
2019-05-22T00:02:55.063Z,0.00
2019-05-22T00:03:55.075Z,0.00
2019-05-22T00:04:55.053Z,0.00
2019-05-22T00:05:55.037Z,0.00
2019-05-22T00:06:55.020Z,0.00
2019-05-22T00:07:55.017Z,0.00
2019-05-22T00:08:55.006Z,0.00
2019-05-22T00:09:55.014Z,0.00
2019-05-22T00:10:55.038Z,0.00
2019-05-22T00:11:54.963Z,0.00
2019-05-22T00:12:54.964Z,0.00
2019-05-22T00:13:54.951Z,0.00
2019-05-22T00:14:54.959Z,0.00
2019-05-22T00:15:54.916Z,0.00
2019-05-22T00:16:54.913Z,0.00
2019-05-22T00:17:54.908Z,0.00
2019-05-22T00:18:54.883Z,0.00
2019-05-22T00:19:54.901Z,0.00
2019-05-22T00:20:54.873Z,0.00
2019-05-22T00:21:54.853Z,0.00
2019-05-22T00:22:54.898Z,0.00
2019-05-22T00:23:54.835Z,0.00
2019-05-22T00:24:54.847Z,0.00
2019-05-22T00:25:54.814Z,0.00
2019-05-22T00:26:54.804Z,0.00
2019-05-22T00:27:54.792Z,0.00
2019-05-22T00:28:54.781Z,0.00
2019-05-22T00:29:54.804Z,0.00
2019-05-22T00:30:54.747Z,0.00
2019-05-22T00:31:54.748Z,0.00
2019-05-22T00:32:54.741Z,0.00
2019-05-22T00:33:54.739Z,0.00
2019-05-22T00:34:54.735Z,0.00
2019-05-22T00:35:54.742Z,0.00
2019-05-22T00:36:54.681Z,0.00
2019-05-22T00:37:54.671Z,0.00
2019-05-22T00:38:54.663Z,0.00
2019-05-22T00:39:54.651Z,0.00
2019-05-22T00:40:54.651Z,0.00
2019-05-22T00:41:54.641Z,0.00
2019-05-22T00:43:04.029Z,0.00
2019-05-22T00:43:55.613Z,0.00
2019-05-22T00:44:54.621Z,0.00
2019-05-22T00:45:54.610Z,0.00
2019-05-22T00:46:54.571Z,0.00
2019-05-22T00:47:54.571Z,0.00
2019-05-22T00:48:54.551Z,0.00
2019-05-22T00:49:54.604Z,0.00
2019-05-22T00:50:54.655Z,0.00
2019-05-22T00:51:54.539Z,0.00
2019-05-22T00:52:54.512Z,0.00
2019-05-22T00:53:54.740Z,0.00
2019-05-22T00:54:54.522Z,0.00
2019-05-22T00:55:54.500Z,0.00
2019-05-22T00:56:54.540Z,0.00
2019-05-22T00:57:54.490Z,0.00
2019-05-22T00:58:54.448Z,0.00
2019-05-22T00:59:54.457Z,0.00
2019-05-22T01:00:54.439Z,0.00
2019-05-22T01:01:54.417Z,0.00
2019-05-22T01:02:54.403Z,0.00
2019-05-22T01:03:54.408Z,0.00
2019-05-22T01:04:54.384Z,0.00
2019-05-22T01:05:54.390Z,0.00
2019-05-22T01:06:54.352Z,0.00
2019-05-22T01:07:54.350Z,0.00
2019-05-22T01:08:54.330Z,0.00
2019-05-22T01:09:54.323Z,0.00
2019-05-22T01:10:54.330Z,0.00
2019-05-22T01:11:54.301Z,0.00
2019-05-22T01:12:54.312Z,0.00
2019-05-22T01:13:54.279Z,0.00
2019-05-22T01:14:54.279Z,0.00
2019-05-22T01:15:54.297Z,0.00
2019-05-22T01:16:54.261Z,0.00
2019-05-22T01:17:54.238Z,0.00
2019-05-22T01:18:54.233Z,0.00
2019-05-22T01:19:54.211Z,0.00
2019-05-22T01:20:54.199Z,0.00
2019-05-22T01:21:54.225Z,0.00
2019-05-22T01:22:54.179Z,0.00
2019-05-22T01:23:54.160Z,0.00
2019-05-22T01:24:54.159Z,0.00
2019-05-22T01:25:54.253Z,0.00
2019-05-22T01:26:54.151Z,0.00
2019-05-22T01:27:54.121Z,0.00
2019-05-22T01:28:54.111Z,0.00
2019-05-22T01:29:54.110Z,0.00
2019-05-22T01:30:54.156Z,0.00
2019-05-22T01:31:55.759Z,0.00
2019-05-22T01:32:54.074Z,0.00
2019-05-22T01:33:54.057Z,0.00
2019-05-22T01:34:54.061Z,0.00
2019-05-22T01:35:54.179Z,0.00
2019-05-22T01:36:54.155Z,0.00
2019-05-22T01:37:54.037Z,0.00
2019-05-22T01:38:54.003Z,0.00
2019-05-22T01:39:54.001Z,0.00
2019-05-22T01:40:53.974Z,0.00
2019-05-22T01:41:53.985Z,0.00
2019-05-22T01:42:53.958Z,0.00
2019-05-22T01:43:53.951Z,0.00
2019-05-22T01:45:03.156Z,0.00
2019-05-22T01:45:54.925Z,0.00
2019-05-22T01:46:53.930Z,0.00
2019-05-22T01:47:53.921Z,0.00
2019-05-22T01:48:53.894Z,0.00
2019-05-22T01:49:53.889Z,0.00
2019-05-22T01:50:53.863Z,0.00
2019-05-22T01:51:53.859Z,0.00
2019-05-22T01:52:53.874Z,0.00
2019-05-22T01:53:54.041Z,0.00
2019-05-22T01:54:53.825Z,0.00
2019-05-22T01:55:53.827Z,0.00
2019-05-22T01:56:53.801Z,0.00
2019-05-22T01:57:53.813Z,0.00
2019-05-22T01:58:53.782Z,0.00
2019-05-22T01:59:53.770Z,0.00
2019-05-22T02:00:53.763Z,0.00
2019-05-22T02:01:53.745Z,0.00
2019-05-22T02:02:53.758Z,0.00
2019-05-22T02:03:53.719Z,0.00
2019-05-22T02:04:53.720Z,0.00
2019-05-22T02:05:53.713Z,0.00
2019-05-22T02:06:53.698Z,0.00
2019-05-22T02:07:53.704Z,0.00
2019-05-22T02:08:53.683Z,0.00
2019-05-22T02:09:53.662Z,0.00
2019-05-22T02:10:53.654Z,0.00
2019-05-22T02:11:53.647Z,0.00
2019-05-22T02:12:53.654Z,0.00
2019-05-22T02:13:53.612Z,0.00
2019-05-22T02:14:53.599Z,0.00
2019-05-22T02:15:53.590Z,0.00
2019-05-22T02:16:56.723Z,0.00
2019-05-22T02:17:56.488Z,0.00
2019-05-22T02:18:53.569Z,0.00
2019-05-22T02:19:53.539Z,0.00
2019-05-22T02:20:53.542Z,0.00
2019-05-22T02:21:53.527Z,0.00
2019-05-22T02:22:53.540Z,0.00
2019-05-22T02:23:53.534Z,0.00
2019-05-22T02:24:53.520Z,0.00
2019-05-22T02:25:53.498Z,0.00
2019-05-22T02:26:53.481Z,0.00
2019-05-22T02:27:53.481Z,0.00
2019-05-22T02:28:53.475Z,0.00
2019-05-22T02:29:53.439Z,0.00
2019-05-22T02:30:53.428Z,0.00
2019-05-22T02:31:55.485Z,0.00
2019-05-22T02:32:53.486Z,0.00
2019-05-22T02:33:53.410Z,0.00
2019-05-22T02:34:53.383Z,0.00
2019-05-22T02:35:53.379Z,0.00
2019-05-22T02:36:53.387Z,0.00
2019-05-22T02:37:53.369Z,0.00
2019-05-22T02:38:53.339Z,0.00
2019-05-22T02:39:53.339Z,0.00
2019-05-22T02:40:53.321Z,0.00
2019-05-22T02:41:53.315Z,0.00
2019-05-22T02:42:53.320Z,0.00
2019-05-22T02:43:53.288Z,0.00
2019-05-22T02:44:53.295Z,0.00
2019-05-22T02:45:53.261Z,0.00
2019-05-22T02:46:53.264Z,0.00
2019-05-22T02:47:53.259Z,0.00
2019-05-22T02:48:53.232Z,0.00
2019-05-22T02:49:53.210Z,0.00
2019-05-22T02:50:53.220Z,0.00
2019-05-22T02:51:53.211Z,0.00
2019-05-22T02:52:53.220Z,0.00
2019-05-22T02:53:53.180Z,0.00
2019-05-22T02:54:53.169Z,0.00
2019-05-22T02:55:53.168Z,0.00
2019-05-22T02:56:53.195Z,0.00
2019-05-22T02:57:53.160Z,0.00
2019-05-22T02:58:53.129Z,0.00
2019-05-22T02:59:53.119Z,0.00
2019-05-22T03:00:53.092Z,0.00
2019-05-22T03:01:53.150Z,0.00
2019-05-22T03:02:53.129Z,0.00
2019-05-22T03:03:53.091Z,0.00
2019-05-22T03:04:53.061Z,0.00
2019-05-22T03:05:53.106Z,0.00
2019-05-22T03:06:53.081Z,0.00
2019-05-22T03:07:53.040Z,0.00
2019-05-22T03:08:53.009Z,0.00
2019-05-22T03:09:53.003Z,0.00
2019-05-22T03:10:52.991Z,0.00
2019-05-22T03:11:52.975Z,4.00
2019-05-22T03:12:52.980Z,4.00
2019-05-22T03:13:52.961Z,4.00
2019-05-22T03:14:53.020Z,4.00
2019-05-22T03:15:52.949Z,4.00
2019-05-22T03:16:53.053Z,4.00
2019-05-22T03:17:52.956Z,4.00
2019-05-22T03:19:07.805Z,4.00
2019-05-22T03:19:53.885Z,8.00
2019-05-22T03:20:52.935Z,8.00
2019-05-22T03:21:52.877Z,8.00
2019-05-22T03:22:52.898Z,12.00
2019-05-22T03:23:52.848Z,12.00
2019-05-22T03:24:52.839Z,8.00
2019-05-22T03:25:52.831Z,12.00
2019-05-22T03:26:52.835Z,8.00
2019-05-22T03:27:52.843Z,8.00
2019-05-22T03:28:52.789Z,12.00
2019-05-22T03:29:52.810Z,16.00
2019-05-22T03:30:52.789Z,16.00
2019-05-22T03:31:52.759Z,16.00
2019-05-22T03:32:52.769Z,24.00
2019-05-22T03:33:52.762Z,20.00
2019-05-22T03:34:52.728Z,20.00
2019-05-22T03:35:52.754Z,20.00
2019-05-22T03:36:52.706Z,24.00
2019-05-22T03:37:52.685Z,24.00
2019-05-22T03:38:52.724Z,28.00
2019-05-22T03:39:52.667Z,28.00
2019-05-22T03:40:52.712Z,32.00
2019-05-22T03:41:52.640Z,36.00
2019-05-22T03:42:52.629Z,28.00
2019-05-22T03:43:52.620Z,28.00
2019-05-22T03:44:52.627Z,28.00
2019-05-22T03:45:52.618Z,36.00
2019-05-22T03:46:52.596Z,32.00
2019-05-22T03:47:52.609Z,40.00
2019-05-22T03:48:52.567Z,40.00
2019-05-22T03:49:52.555Z,40.00
2019-05-22T03:50:52.572Z,40.00
2019-05-22T03:51:52.622Z,44.00
2019-05-22T03:52:52.525Z,48.00
2019-05-22T03:53:52.512Z,48.00
2019-05-22T03:54:52.510Z,48.00
2019-05-22T03:55:52.517Z,48.00
2019-05-22T03:56:52.476Z,48.00
2019-05-22T03:57:52.467Z,60.00
2019-05-22T03:58:52.465Z,60.00
2019-05-22T03:59:52.455Z,60.00
2019-05-22T04:00:52.480Z,68.00
2019-05-22T04:01:52.428Z,72.00
2019-05-22T04:02:52.424Z,72.00
2019-05-22T04:03:52.399Z,68.00
2019-05-22T04:04:52.394Z,76.00
2019-05-22T04:05:52.402Z,80.00
2019-05-22T04:06:52.371Z,96.00
2019-05-22T04:07:52.356Z,96.00
2019-05-22T04:08:52.339Z,96.00
2019-05-22T04:09:52.375Z,96.00
2019-05-22T04:10:52.346Z,116.00
2019-05-22T04:11:52.328Z,120.00
2019-05-22T04:12:52.300Z,108.00
2019-05-22T04:13:52.298Z,108.00
2019-05-22T04:14:52.279Z,120.00
2019-05-22T04:15:52.295Z,160.00
2019-05-22T04:16:52.280Z,164.00
2019-05-22T04:17:52.249Z,184.00
2019-05-22T04:18:52.228Z,204.00
2019-05-22T04:19:52.241Z,248.00
2019-05-22T04:20:52.270Z,244.00
2019-05-22T04:21:52.219Z,240.00
2019-05-22T04:22:52.191Z,284.00
2019-05-22T04:23:52.188Z,260.00
2019-05-22T04:24:52.169Z,316.00
2019-05-22T04:25:53.481Z,296.00
2019-05-22T04:26:52.164Z,304.00
2019-05-22T04:27:52.157Z,420.00
2019-05-22T04:28:52.151Z,376.00
2019-05-22T04:29:52.125Z,388.00
2019-05-22T04:30:52.109Z,540.00
2019-05-22T04:31:52.108Z,456.00
2019-05-22T04:32:52.079Z,396.00
2019-05-22T04:33:52.089Z,352.00
2019-05-22T04:34:52.058Z,444.00
2019-05-22T04:35:52.057Z,388.00
2019-05-22T04:36:52.062Z,432.00
2019-05-22T04:37:52.029Z,520.00
2019-05-22T04:38:52.058Z,432.00
2019-05-22T04:39:52.030Z,576.00
2019-05-22T04:40:52.117Z,552.00
2019-05-22T04:41:52.012Z,616.00
2019-05-22T04:42:51.972Z,592.00
2019-05-22T04:43:51.970Z,740.00
2019-05-22T04:44:51.947Z,676.00
2019-05-22T04:45:51.958Z,656.00
2019-05-22T04:46:52.017Z,596.00
2019-05-22T04:47:51.914Z,676.00
2019-05-22T04:48:51.953Z,752.00
2019-05-22T04:50:06.218Z,736.00
2019-05-22T04:50:52.884Z,652.00
2019-05-22T04:51:51.903Z,776.00
2019-05-22T04:52:51.897Z,628.00
2019-05-22T04:53:51.849Z,656.00
2019-05-22T04:54:52.564Z,760.00
2019-05-22T04:55:51.830Z,656.00
2019-05-22T04:56:51.842Z,604.00
2019-05-22T04:57:51.806Z,596.00
2019-05-22T04:58:51.799Z,600.00
2019-05-22T04:59:51.819Z,496.00
2019-05-22T05:00:51.766Z,560.00
2019-05-22T05:01:51.784Z,532.00
2019-05-22T05:02:51.751Z,456.00
2019-05-22T05:03:51.736Z,500.00
2019-05-22T05:04:51.726Z,424.00
2019-05-22T05:05:51.758Z,412.00
2019-05-22T05:06:51.711Z,400.00
2019-05-22T05:07:51.689Z,396.00
2019-05-22T05:08:51.685Z,452.00
2019-05-22T05:09:51.675Z,452.00
2019-05-22T05:10:51.674Z,472.00
2019-05-22T05:11:51.664Z,524.00
2019-05-22T05:12:51.635Z,500.00
2019-05-22T05:13:51.635Z,484.00
2019-05-22T05:14:51.622Z,468.00
2019-05-22T05:15:51.604Z,492.00
2019-05-22T05:16:51.617Z,412.00
2019-05-22T05:17:51.575Z,508.00
2019-05-22T05:18:51.574Z,476.00
2019-05-22T05:19:51.566Z,532.00
2019-05-22T05:20:51.594Z,548.00
2019-05-22T05:21:51.554Z,528.00
2019-05-22T05:22:51.574Z,692.00
2019-05-22T05:23:51.515Z,752.00
2019-05-22T05:24:51.495Z,844.00
2019-05-22T05:25:51.484Z,924.00
2019-05-22T05:26:51.527Z,848.00
2019-05-22T05:27:51.521Z,1040.00
2019-05-22T05:28:51.549Z,912.00
2019-05-22T05:29:51.456Z,916.00
2019-05-22T05:30:51.487Z,1056.00
2019-05-22T05:31:51.491Z,1136.00
2019-05-22T05:32:51.578Z,1108.00
2019-05-22T05:33:51.407Z,1176.00
2019-05-22T05:34:51.430Z,1236.00
2019-05-22T05:35:51.394Z,1284.00
2019-05-22T05:36:51.398Z,1360.00
2019-05-22T05:37:51.394Z,1068.00
2019-05-22T05:38:51.403Z,980.00
2019-05-22T05:39:51.336Z,1068.00
2019-05-22T05:40:51.351Z,1076.00
2019-05-22T05:41:51.314Z,1264.00
2019-05-22T05:42:51.323Z,1152.00
2019-05-22T05:43:51.313Z,1176.00
2019-05-22T05:44:51.294Z,1592.00
2019-05-22T05:45:51.284Z,1332.00
2019-05-22T05:46:51.264Z,1232.00
2019-05-22T05:47:51.264Z,1236.00
2019-05-22T05:48:51.254Z,1324.00
2019-05-22T05:49:51.291Z,1316.00
2019-05-22T05:50:51.223Z,1212.00
2019-05-22T05:51:51.312Z,1112.00
2019-05-22T05:52:51.238Z,1332.00
2019-05-22T05:53:51.280Z,1312.00
2019-05-22T05:54:51.208Z,1280.00
2019-05-22T05:55:51.177Z,1416.00
2019-05-22T05:56:51.158Z,1184.00
2019-05-22T05:57:51.145Z,1220.00
2019-05-22T05:58:51.146Z,1252.00
2019-05-22T05:59:51.132Z,1096.00
2019-05-22T06:00:51.195Z,1160.00
2019-05-22T06:01:51.115Z,1316.00
2019-05-22T06:02:56.478Z,1168.00
2019-05-22T06:03:52.123Z,1148.00
2019-05-22T06:04:51.091Z,1208.00
2019-05-22T06:05:51.072Z,1388.00
2019-05-22T06:06:51.232Z,1292.00
2019-05-22T06:07:51.027Z,1108.00
2019-05-22T06:08:51.024Z,1128.00
2019-05-22T06:09:51.024Z,1136.00
2019-05-22T06:10:50.992Z,1160.00
2019-05-22T06:11:50.982Z,1336.00
2019-05-22T06:12:50.985Z,1208.00
2019-05-22T06:13:50.962Z,1056.00
2019-05-22T06:14:50.978Z,1356.00
2019-05-22T06:15:50.944Z,1196.00
2019-05-22T06:16:50.933Z,1124.00
2019-05-22T06:17:50.922Z,1200.00
2019-05-22T06:18:50.902Z,1056.00
2019-05-22T06:19:50.935Z,1136.00
2019-05-22T06:21:03.318Z,1420.00
2019-05-22T06:21:51.883Z,1204.00
2019-05-22T06:22:50.872Z,1428.00
2019-05-22T06:23:50.860Z,1284.00
2019-05-22T06:24:50.906Z,1564.00
2019-05-22T06:25:50.853Z,1332.00
2019-05-22T06:26:50.825Z,1552.00
2019-05-22T06:27:50.812Z,1740.00
2019-05-22T06:28:50.804Z,1940.00
2019-05-22T06:29:50.796Z,1724.00
2019-05-22T06:30:50.791Z,1404.00
2019-05-22T06:31:50.762Z,1504.00
2019-05-22T06:32:50.766Z,1624.00
2019-05-22T06:33:50.802Z,1524.00
2019-05-22T06:34:50.780Z,1612.00
2019-05-22T06:35:50.763Z,1716.00
2019-05-22T06:36:50.721Z,1716.00
2019-05-22T06:37:50.713Z,2552.00
2019-05-22T06:38:50.690Z,3048.00
2019-05-22T06:39:50.701Z,2652.00
2019-05-22T06:40:50.685Z,2352.00
2019-05-22T06:41:50.652Z,3368.00
2019-05-22T06:42:50.648Z,2604.00
2019-05-22T06:43:50.641Z,2208.00
2019-05-22T06:44:50.635Z,2216.00
2019-05-22T06:45:50.631Z,2268.00
2019-05-22T06:46:50.627Z,2104.00
2019-05-22T06:47:50.633Z,1744.00
2019-05-22T06:48:50.617Z,1576.00
2019-05-22T06:49:50.560Z,1596.00
2019-05-22T06:50:50.579Z,1548.00
2019-05-22T06:51:50.637Z,1972.00
2019-05-22T06:52:50.534Z,2244.00
2019-05-22T06:53:50.529Z,2796.00
2019-05-22T06:54:50.531Z,3044.00
2019-05-22T06:55:50.518Z,3892.00
2019-05-22T06:56:50.511Z,4624.00
2019-05-22T06:57:50.492Z,4396.00
2019-05-22T06:58:50.460Z,2816.00
2019-05-22T07:00:10.781Z,2664.00
2019-05-22T07:00:51.457Z,2856.00
2019-05-22T07:01:50.451Z,2596.00
2019-05-22T07:02:50.443Z,2836.00
2019-05-22T07:03:50.413Z,2444.00
2019-05-22T07:04:50.511Z,2648.00
2019-05-22T07:05:50.411Z,2692.00
2019-05-22T07:06:50.524Z,2500.00
2019-05-22T07:07:50.733Z,1516.00
2019-05-22T07:08:50.770Z,1776.00
2019-05-22T07:09:50.344Z,2256.00
2019-05-22T07:10:50.333Z,2688.00
2019-05-22T07:11:50.350Z,2244.00
2019-05-22T07:12:51.145Z,2560.00
2019-05-22T07:13:50.300Z,2400.00
2019-05-22T07:14:50.321Z,2428.00
2019-05-22T07:15:50.406Z,2092.00
2019-05-22T07:16:50.267Z,1808.00
2019-05-22T07:17:50.372Z,2280.00
2019-05-22T07:18:50.241Z,2032.00
2019-05-22T07:19:50.230Z,1744.00
2019-05-22T07:20:50.273Z,1672.00
2019-05-22T07:21:50.219Z,1492.00
2019-05-22T07:22:50.234Z,1380.00
2019-05-22T07:23:50.201Z,1644.00
2019-05-22T07:24:50.201Z,1592.00
2019-05-22T07:25:50.176Z,1660.00
2019-05-22T07:26:50.190Z,1716.00
2019-05-22T07:27:50.176Z,1648.00
2019-05-22T07:28:50.157Z,1972.00
2019-05-22T07:29:50.120Z,1652.00
2019-05-22T07:30:50.113Z,1596.00
2019-05-22T07:31:50.099Z,1664.00
2019-05-22T07:32:50.293Z,1840.00
2019-05-22T07:33:50.113Z,1908.00
2019-05-22T07:34:50.089Z,1628.00
2019-05-22T07:36:08.442Z,1776.00
2019-05-22T07:36:51.040Z,1752.00
2019-05-22T07:37:50.037Z,1648.00
2019-05-22T07:38:50.056Z,1792.00
2019-05-22T07:39:50.088Z,2948.00
2019-05-22T07:40:51.265Z,2728.00
2019-05-22T07:41:50.200Z,3060.00
2019-05-22T07:42:50.175Z,2872.00
2019-05-22T07:43:49.993Z,3068.00
2019-05-22T07:44:49.980Z,3920.00
2019-05-22T07:45:49.973Z,3016.00
2019-05-22T07:46:49.935Z,3128.00
2019-05-22T07:47:49.964Z,3272.00
2019-05-22T07:48:49.935Z,3564.00
2019-05-22T07:49:49.914Z,3484.00
2019-05-22T07:50:49.919Z,3104.00
2019-05-22T07:51:57.553Z,2436.00
2019-05-22T07:52:50.873Z,3192.00
2019-05-22T07:53:49.884Z,3268.00
2019-05-22T07:54:49.852Z,3216.00
2019-05-22T07:55:49.845Z,3148.00
2019-05-22T07:56:49.853Z,2620.00
2019-05-22T07:57:49.854Z,2672.00
2019-05-22T07:58:49.824Z,3884.00
2019-05-22T07:59:49.799Z,5236.00
2019-05-22T08:00:49.793Z,6056.00
2019-05-22T08:01:49.773Z,5064.00
2019-05-22T08:02:49.764Z,5280.00
2019-05-22T08:03:49.843Z,4584.00
2019-05-22T08:04:49.735Z,5144.00
2019-05-22T08:05:49.753Z,5000.00
2019-05-22T08:06:49.742Z,4884.00
2019-05-22T08:07:49.735Z,5680.00
2019-05-22T08:08:49.711Z,5336.00
2019-05-22T08:09:49.729Z,4408.00
2019-05-22T08:10:49.675Z,3008.00
2019-05-22T08:11:49.712Z,2864.00
2019-05-22T08:12:49.652Z,2864.00
2019-05-22T08:13:49.642Z,2956.00
2019-05-22T08:14:49.658Z,3240.00
2019-05-22T08:15:49.635Z,3512.00
2019-05-22T08:16:49.614Z,3376.00
2019-05-22T08:17:49.602Z,6244.00
2019-05-22T08:18:49.583Z,4956.00
2019-05-22T08:19:49.604Z,3732.00
2019-05-22T08:20:49.574Z,3604.00
2019-05-22T08:21:49.543Z,4612.00
2019-05-22T08:22:49.548Z,4640.00
2019-05-22T08:23:49.563Z,4672.00
2019-05-22T08:24:49.543Z,4320.00
2019-05-22T08:25:49.507Z,7076.00
2019-05-22T08:26:54.353Z,7840.00
2019-05-22T08:27:50.490Z,8232.00
2019-05-22T08:28:49.490Z,8328.00
2019-05-22T08:29:49.479Z,9240.00
2019-05-22T08:30:49.468Z,10336.00
2019-05-22T08:31:49.445Z,12544.00
2019-05-22T08:32:49.436Z,11304.00
2019-05-22T08:33:49.444Z,10716.00
2019-05-22T08:34:49.420Z,11364.00
2019-05-22T08:35:49.391Z,11976.00
2019-05-22T08:36:49.394Z,12524.00
2019-05-22T08:37:49.381Z,10216.00
2019-05-22T08:38:49.382Z,10660.00
2019-05-22T08:39:49.401Z,10524.00
2019-05-22T08:40:49.346Z,11632.00
2019-05-22T08:41:49.339Z,9448.00
2019-05-22T08:42:49.323Z,10364.00
2019-05-22T08:44:13.929Z,10260.00
2019-05-22T08:44:50.311Z,10916.00
2019-05-22T08:45:49.284Z,12148.00
2019-05-22T08:46:49.288Z,12180.00
2019-05-22T08:47:49.280Z,11228.00
2019-05-22T08:48:49.691Z,7560.00
2019-05-22T08:49:49.279Z,5640.00
2019-05-22T08:50:49.265Z,5820.00
2019-05-22T08:51:49.223Z,4772.00
2019-05-22T08:52:49.221Z,4456.00
2019-05-22T08:53:49.211Z,4844.00
2019-05-22T08:54:49.212Z,3868.00
2019-05-22T08:55:49.179Z,5300.00
2019-05-22T08:56:49.166Z,7548.00
2019-05-22T08:57:49.207Z,7972.00
2019-05-22T08:58:49.144Z,7784.00
2019-05-22T08:59:49.193Z,8228.00
2019-05-22T09:00:49.133Z,8456.00
2019-05-22T09:01:49.106Z,8504.00
2019-05-22T09:02:49.091Z,9224.00
2019-05-22T09:03:49.093Z,10772.00
2019-05-22T09:04:49.107Z,11556.00
2019-05-22T09:05:49.070Z,10484.00
2019-05-22T09:06:49.062Z,8332.00
2019-05-22T09:07:49.086Z,7244.00
2019-05-22T09:08:49.035Z,6440.00
2019-05-22T09:09:49.038Z,5664.00
2019-05-22T09:10:49.062Z,5528.00
2019-05-22T09:11:49.003Z,5112.00
2019-05-22T09:12:48.982Z,4820.00
2019-05-22T09:13:48.983Z,3944.00
2019-05-22T09:14:48.984Z,4772.00
2019-05-22T09:15:48.961Z,4384.00
2019-05-22T09:16:48.997Z,3704.00
2019-05-22T09:17:48.945Z,4008.00
2019-05-22T09:18:48.938Z,4204.00
2019-05-22T09:19:48.929Z,4816.00
2019-05-22T09:20:49.933Z,4980.00
2019-05-22T09:21:48.890Z,4704.00
2019-05-22T09:22:48.904Z,4600.00
2019-05-22T09:23:48.868Z,5420.00
2019-05-22T09:24:48.884Z,5960.00
2019-05-22T09:25:48.842Z,6160.00
2019-05-22T09:26:48.842Z,4544.00
2019-05-22T09:27:48.835Z,3116.00
2019-05-22T09:28:48.852Z,2756.00
2019-05-22T09:29:48.831Z,2792.00
2019-05-22T09:30:48.835Z,2660.00
2019-05-22T09:31:48.781Z,2548.00
2019-05-22T09:32:48.760Z,2492.00
2019-05-22T09:33:48.772Z,2524.00
2019-05-22T09:34:48.866Z,2964.00
2019-05-22T09:35:48.888Z,3632.00
2019-05-22T09:36:48.755Z,3720.00
2019-05-22T09:37:48.726Z,2808.00
2019-05-22T09:38:52.150Z,2284.00
2019-05-22T09:39:48.822Z,2360.00
2019-05-22T09:40:48.710Z,2772.00
2019-05-22T09:41:48.711Z,3652.00
2019-05-22T09:42:48.703Z,4744.00
2019-05-22T09:43:48.654Z,5776.00
2019-05-22T09:44:48.713Z,8300.00
2019-05-22T09:45:48.620Z,9208.00
2019-05-22T09:46:48.688Z,10628.00
2019-05-22T09:47:48.640Z,11768.00
2019-05-22T09:48:48.631Z,12224.00
2019-05-22T09:49:48.604Z,10272.00
2019-05-22T09:50:48.591Z,7504.00
2019-05-22T09:51:48.620Z,6084.00
2019-05-22T09:52:57.406Z,4992.00
2019-05-22T09:53:49.640Z,3608.00
2019-05-22T09:54:48.601Z,2488.00
2019-05-22T09:55:48.589Z,2328.00
2019-05-22T09:56:48.694Z,2316.00
2019-05-22T09:57:48.579Z,2188.00
2019-05-22T09:58:48.573Z,2840.00
2019-05-22T09:59:48.560Z,3096.00
2019-05-22T10:00:48.624Z,4188.00
2019-05-22T10:01:48.557Z,3928.00
2019-05-22T10:02:48.430Z,4460.00
2019-05-22T10:03:48.505Z,3600.00
2019-05-22T10:04:48.449Z,2876.00
2019-05-22T10:05:48.482Z,2448.00
2019-05-22T10:06:48.496Z,2324.00
2019-05-22T10:08:00.054Z,2692.00
2019-05-22T10:08:49.384Z,2996.00
2019-05-22T10:09:48.432Z,3340.00
2019-05-22T10:10:48.409Z,3876.00
2019-05-22T10:11:48.360Z,4008.00
2019-05-22T10:12:48.336Z,4612.00
2019-05-22T10:13:48.323Z,6060.00
2019-05-22T10:14:48.398Z,8324.00
2019-05-22T10:15:48.315Z,10352.00
2019-05-22T10:16:48.311Z,12860.00
2019-05-22T10:17:48.328Z,15304.00
2019-05-22T10:18:52.586Z,15172.00
2019-05-22T10:19:49.256Z,14688.00
2019-05-22T10:20:48.244Z,14032.00
2019-05-22T10:21:48.226Z,12800.00
2019-05-22T10:22:48.290Z,10956.00
2019-05-22T10:23:48.203Z,13992.00
2019-05-22T10:24:50.437Z,13876.00
2019-05-22T10:25:48.183Z,10700.00
2019-05-22T10:26:48.187Z,8492.00
2019-05-22T10:27:48.192Z,7140.00
2019-05-22T10:28:48.145Z,7380.00
2019-05-22T10:29:48.212Z,6356.00
2019-05-22T10:30:48.133Z,5164.00
2019-05-22T10:31:48.114Z,4596.00
2019-05-22T10:32:48.135Z,4880.00
2019-05-22T10:33:51.751Z,7132.00
2019-05-22T10:34:48.093Z,7920.00
2019-05-22T10:35:48.108Z,8008.00
2019-05-22T10:36:48.066Z,8824.00
2019-05-22T10:37:48.125Z,10436.00
2019-05-22T10:38:48.045Z,11908.00
2019-05-22T10:39:48.045Z,11172.00
2019-05-22T10:40:48.026Z,10884.00
2019-05-22T10:41:48.011Z,9064.00
2019-05-22T10:42:48.012Z,9332.00
2019-05-22T10:43:47.984Z,10036.00
2019-05-22T10:44:48.005Z,10224.00
2019-05-22T10:45:47.970Z,9908.00
2019-05-22T10:46:47.951Z,9428.00
2019-05-22T10:47:47.975Z,8968.00
2019-05-22T10:48:47.957Z,9780.00
2019-05-22T10:49:47.936Z,9912.00
2019-05-22T10:50:47.915Z,10064.00
2019-05-22T10:51:47.902Z,10760.00
2019-05-22T10:52:53.074Z,12240.00
2019-05-22T10:53:48.891Z,13712.00
2019-05-22T10:54:47.867Z,14812.00
2019-05-22T10:55:47.874Z,14948.00
2019-05-22T10:56:47.843Z,15160.00
2019-05-22T10:57:47.866Z,15216.00
2019-05-22T10:58:47.822Z,14652.00
2019-05-22T10:59:47.812Z,13156.00
2019-05-22T11:00:47.805Z,13040.00
2019-05-22T11:01:47.806Z,13160.00
2019-05-22T11:02:47.801Z,13320.00
2019-05-22T11:03:47.772Z,9868.00
2019-05-22T11:04:47.752Z,9720.00
2019-05-22T11:06:05.281Z,12880.00
2019-05-22T11:06:48.743Z,14488.00
2019-05-22T11:07:47.756Z,14312.00
2019-05-22T11:08:47.741Z,11068.00
2019-05-22T11:09:47.712Z,8316.00
2019-05-22T11:10:47.744Z,7660.00
2019-05-22T11:11:47.682Z,7924.00
2019-05-22T11:12:47.682Z,8892.00
2019-05-22T11:14:00.550Z,9616.00
2019-05-22T11:14:48.720Z,10224.00
2019-05-22T11:15:47.633Z,10072.00
2019-05-22T11:16:47.646Z,9956.00
2019-05-22T11:17:47.643Z,8856.00
2019-05-22T11:18:47.622Z,7988.00
2019-05-22T11:19:47.583Z,7836.00
2019-05-22T11:20:47.587Z,7908.00
2019-05-22T11:21:47.572Z,8368.00
2019-05-22T11:22:47.570Z,8532.00
2019-05-22T11:23:52.867Z,7916.00
2019-05-22T11:24:48.574Z,6936.00
2019-05-22T11:25:47.525Z,5776.00
2019-05-22T11:26:47.533Z,5552.00
2019-05-22T11:27:47.533Z,5724.00
2019-05-22T11:28:48.058Z,6224.00
2019-05-22T11:29:47.493Z,6516.00
2019-05-22T11:30:47.476Z,5656.00
2019-05-22T11:31:47.466Z,6152.00
2019-05-22T11:32:47.463Z,7408.00
2019-05-22T11:33:47.485Z,8788.00
2019-05-22T11:34:47.422Z,9316.00
2019-05-22T11:35:47.420Z,9196.00
2019-05-22T11:36:47.516Z,9300.00
2019-05-22T11:37:47.403Z,9488.00
2019-05-22T11:38:47.407Z,7920.00
2019-05-22T11:39:47.373Z,6708.00
2019-05-22T11:40:47.419Z,7868.00
2019-05-22T11:41:47.348Z,9528.00
2019-05-22T11:42:47.358Z,11276.00
2019-05-22T11:43:47.352Z,12788.00
2019-05-22T11:44:47.332Z,13452.00
2019-05-22T11:45:47.327Z,13388.00
2019-05-22T11:46:47.317Z,13416.00
2019-05-22T11:47:47.288Z,13168.00
2019-05-22T11:48:47.286Z,12728.00
2019-05-22T11:49:47.379Z,12308.00
2019-05-22T11:50:47.258Z,11708.00
2019-05-22T11:51:47.243Z,11280.00
2019-05-22T11:52:47.230Z,11380.00
2019-05-22T11:53:47.217Z,10704.00
2019-05-22T11:54:47.262Z,10216.00
2019-05-22T11:55:47.197Z,10172.00
2019-05-22T11:56:47.205Z,10056.00
2019-05-22T11:57:47.225Z,10052.00
2019-05-22T11:58:47.231Z,10052.00
2019-05-22T11:59:47.168Z,10196.00
2019-05-22T12:00:47.196Z,10448.00
2019-05-22T12:01:47.123Z,10524.00
2019-05-22T12:02:47.177Z,10192.00
2019-05-22T12:03:47.126Z,9544.00
2019-05-22T12:04:48.929Z,9052.00
2019-05-22T12:05:47.109Z,9540.00
2019-05-22T12:06:47.080Z,9228.00
2019-05-22T12:07:47.075Z,8860.00
2019-05-22T12:08:47.072Z,7788.00
2019-05-22T12:09:47.060Z,7404.00
2019-05-22T12:10:47.044Z,8124.00
2019-05-22T12:11:47.046Z,8524.00
2019-05-22T12:12:47.065Z,8152.00
2019-05-22T12:13:47.008Z,7496.00
2019-05-22T12:14:46.982Z,7740.00
2019-05-22T12:15:46.991Z,6732.00
2019-05-22T12:16:46.973Z,6012.00
2019-05-22T12:17:46.986Z,5112.00
2019-05-22T12:18:46.933Z,5200.00
2019-05-22T12:19:46.975Z,4572.00
2019-05-22T12:20:46.940Z,4420.00
2019-05-22T12:21:46.909Z,4192.00
2019-05-22T12:22:46.892Z,4416.00
2019-05-22T12:23:46.903Z,4560.00
2019-05-22T12:24:46.897Z,5468.00
2019-05-22T12:25:46.907Z,6004.00
2019-05-22T12:26:46.863Z,6136.00
2019-05-22T12:27:46.893Z,6116.00